Hesperange, Luxembourg
Current Conditions -  °F | °C
As of 3:20 PM on Thursday 27 Nov 2014 (Local Time) from ELLX Reporting Station
Light Rain Light Rain  
Wind Chill: 39°   Ceiling: 400
Heat Index: 43°   Visibility: 1.7mi
Dew Point: 43°   Wind: 7mph
Humidity: 100%   Direction: 90°E
Pressure: 29.68"   Gusts: NA
Location:  49.57°N, 6.15°E
Report Text: ELLX 271420Z 09006KT 050V130 2800 BR -RA SCT001 BKN004 06/06 Q1005 TEMPO 3000 BR
Loading
Personal Weather Stations






























Interactive Weather Map New forecast layout! Learn more

10-Day Weather Forecast

Advertisements
Track Severe Weather on mobile